sensor_id;sensor_type;location;lat;lon;timestamp;P1;durP1;ratioP1;P2;durP2;ratioP2
44446;SDS011;30152;52.066;5.358;2022-10-23T07:28:17;15.27;;;8.90;;
44446;SDS011;30152;52.066;5.358;2022-10-23T07:30:42;13.43;;;8.68;;
44446;SDS011;30152;52.066;5.358;2022-10-23T07:33:08;19.42;;;7.72;;
44446;SDS011;30152;52.066;5.358;2022-10-23T07:35:37;17.60;;;7.93;;
44446;SDS011;30152;52.066;5.358;2022-10-23T07:38:04;17.40;;;8.38;;
44446;SDS011;30152;52.066;5.358;2022-10-23T07:40:30;17.77;;;6.97;;
44446;SDS011;30152;52.066;5.358;2022-10-23T07:42:56;13.23;;;6.63;;
44446;SDS011;30152;52.066;5.358;2022-10-23T07:45:21;11.00;;;6.43;;
44446;SDS011;30152;52.066;5.358;2022-10-23T07:47:50;14.35;;;7.60;;
44446;SDS011;30152;52.066;5.358;2022-10-23T07:50:16;13.77;;;6.90;;
44446;SDS011;30152;52.066;5.358;2022-10-23T07:52:42;15.18;;;7.10;;
44446;SDS011;30152;52.066;5.358;2022-10-23T07:55:08;12.27;;;7.20;;
44446;SDS011;30152;52.066;5.358;2022-10-23T07:57:34;13.35;;;7.07;;
44446;SDS011;30152;52.066;5.358;2022-10-23T08:00:00;13.40;;;7.25;;
44446;SDS011;30152;52.066;5.358;2022-10-23T08:02:26;12.55;;;6.72;;
44446;SDS011;30152;52.066;5.358;2022-10-23T08:04:52;11.40;;;6.43;;
44446;SDS011;30152;52.066;5.358;2022-10-23T08:07:18;11.60;;;6.60;;
44446;SDS011;30152;52.066;5.358;2022-10-23T08:09:43;13.23;;;6.95;;
44446;SDS011;30152;52.066;5.358;2022-10-23T08:12:09;15.25;;;7.43;;
44446;SDS011;30152;52.066;5.358;2022-10-23T08:14:35;20.30;;;7.68;;
44446;SDS011;30152;52.066;5.358;2022-10-23T08:17:01;16.30;;;6.90;;
44446;SDS011;30152;52.066;5.358;2022-10-23T08:19:28;11.77;;;6.60;;
44446;SDS011;30152;52.066;5.358;2022-10-23T08:21:54;15.95;;;6.80;;
44446;SDS011;30152;52.066;5.358;2022-10-23T08:24:21;13.82;;;7.03;;
44446;SDS011;30152;52.066;5.358;2022-10-23T08:26:48;11.48;;;6.35;;
44446;SDS011;30152;52.066;5.358;2022-10-23T08:29:14;14.48;;;6.35;;
44446;SDS011;30152;52.066;5.358;2022-10-23T08:31:39;13.48;;;6.50;;
44446;SDS011;30152;52.066;5.358;2022-10-23T08:34:05;14.02;;;6.80;;
44446;SDS011;30152;52.066;5.358;2022-10-23T08:36:31;12.77;;;5.65;;
44446;SDS011;30152;52.066;5.358;2022-10-23T08:38:57;11.88;;;5.97;;
44446;SDS011;30152;52.066;5.358;2022-10-23T08:41:31;18.73;;;6.60;;
44446;SDS011;30152;52.066;5.358;2022-10-23T08:47:08;11.25;;;5.60;;
44446;SDS011;30152;52.066;5.358;2022-10-23T08:50:01;13.85;;;5.75;;
44446;SDS011;30152;52.066;5.358;2022-10-23T08:52:31;15.52;;;7.50;;
44446;SDS011;30152;52.066;5.358;2022-10-23T08:55:05;15.63;;;7.13;;
44446;SDS011;30152;52.066;5.358;2022-10-23T08:57:59;13.40;;;6.68;;
44446;SDS011;30152;52.066;5.358;2022-10-23T09:00:29;16.30;;;6.88;;
44446;SDS011;30152;52.066;5.358;2022-10-23T09:02:55;18.05;;;6.68;;
44446;SDS011;30152;52.066;5.358;2022-10-23T09:05:26;16.63;;;6.82;;
44446;SDS011;30152;52.066;5.358;2022-10-23T09:16:44;14.00;;;5.82;;
44446;SDS011;30152;52.066;5.358;2022-10-23T09:19:21;19.90;;;6.95;;
44446;SDS011;30152;52.066;5.358;2022-10-23T09:21:51;18.25;;;6.15;;
44446;SDS011;30152;52.066;5.358;2022-10-23T09:24:18;17.52;;;6.15;;
44446;SDS011;30152;52.066;5.358;2022-10-23T09:26:46;14.80;;;6.20;;
44446;SDS011;30152;52.066;5.358;2022-10-23T09:29:17;12.18;;;6.18;;
44446;SDS011;30152;52.066;5.358;2022-10-23T09:31:52;14.55;;;6.88;;
44446;SDS011;30152;52.066;5.358;2022-10-23T09:34:21;16.02;;;6.70;;
44446;SDS011;30152;52.066;5.358;2022-10-23T09:36:53;14.90;;;6.40;;
44446;SDS011;30152;52.066;5.358;2022-10-23T09:39:25;13.25;;;5.95;;
44446;SDS011;30152;52.066;5.358;2022-10-23T09:41:56;10.18;;;5.72;;
44446;SDS011;30152;52.066;5.358;2022-10-23T09:44:23;13.18;;;5.30;;
44446;SDS011;30152;52.066;5.358;2022-10-23T09:49:31;12.20;;;5.28;;
44446;SDS011;30152;52.066;5.358;2022-10-23T09:51:59;12.30;;;4.80;;
44446;SDS011;30152;52.066;5.358;2022-10-23T09:54:38;11.65;;;5.18;;
44446;SDS011;30152;52.066;5.358;2022-10-23T09:59:43;12.57;;;4.30;;
44446;SDS011;30152;52.066;5.358;2022-10-23T10:02:27;9.95;;;4.72;;
44446;SDS011;30152;52.066;5.358;2022-10-23T10:04:54;8.48;;;3.45;;
44446;SDS011;30152;52.066;5.358;2022-10-23T10:07:21;10.50;;;4.38;;
44446;SDS011;30152;52.066;5.358;2022-10-23T10:09:52;13.38;;;3.83;;
44446;SDS011;30152;52.066;5.358;2022-10-23T10:20:59;11.07;;;3.40;;
44446;SDS011;30152;52.066;5.358;2022-10-23T10:32:05;8.07;;;2.95;;
44446;SDS011;30152;52.066;5.358;2022-10-23T10:35:03;11.32;;;3.65;;
44446;SDS011;30152;52.066;5.358;2022-10-23T10:37:46;6.75;;;2.83;;
44446;SDS011;30152;52.066;5.358;2022-10-23T10:40:24;7.97;;;2.83;;
44446;SDS011;30152;52.066;5.358;2022-10-23T10:46:03;7.18;;;2.80;;
44446;SDS011;30152;52.066;5.358;2022-10-23T10:48:58;9.32;;;3.00;;
44446;SDS011;30152;52.066;5.358;2022-10-23T10:57:04;8.13;;;3.00;;
44446;SDS011;30152;52.066;5.358;2022-10-23T10:59:38;10.13;;;2.83;;
44446;SDS011;30152;52.066;5.358;2022-10-23T11:07:53;9.35;;;2.60;;
44446;SDS011;30152;52.066;5.358;2022-10-23T11:10:23;10.35;;;3.35;;
44446;SDS011;30152;52.066;5.358;2022-10-23T11:12:48;8.73;;;3.22;;
44446;SDS011;30152;52.066;5.358;2022-10-23T11:15:16;7.38;;;3.08;;
44446;SDS011;30152;52.066;5.358;2022-10-23T11:17:51;7.18;;;2.70;;
44446;SDS011;30152;52.066;5.358;2022-10-23T11:22:58;10.48;;;3.05;;
44446;SDS011;30152;52.066;5.358;2022-10-23T11:36:45;7.63;;;2.28;;
44446;SDS011;30152;52.066;5.358;2022-10-23T11:39:27;8.63;;;2.50;;
44446;SDS011;30152;52.066;5.358;2022-10-23T11:44:27;10.57;;;2.58;;
44446;SDS011;30152;52.066;5.358;2022-10-23T11:47:03;5.80;;;2.05;;
44446;SDS011;30152;52.066;5.358;2022-10-23T11:49:47;5.25;;;2.00;;
44446;SDS011;30152;52.066;5.358;2022-10-23T11:52:21;7.40;;;2.30;;
44446;SDS011;30152;52.066;5.358;2022-10-23T11:54:47;8.75;;;2.15;;
44446;SDS011;30152;52.066;5.358;2022-10-23T11:57:14;7.15;;;1.90;;
44446;SDS011;30152;52.066;5.358;2022-10-23T12:02:24;12.60;;;2.55;;
44446;SDS011;30152;52.066;5.358;2022-10-23T12:05:04;10.73;;;2.03;;
44446;SDS011;30152;52.066;5.358;2022-10-23T12:07:33;9.70;;;2.83;;
44446;SDS011;30152;52.066;5.358;2022-10-23T12:10:02;8.90;;;2.30;;
44446;SDS011;30152;52.066;5.358;2022-10-23T12:17:42;9.10;;;1.90;;
44446;SDS011;30152;52.066;5.358;2022-10-23T12:20:16;12.00;;;2.47;;
44446;SDS011;30152;52.066;5.358;2022-10-23T12:25:54;8.10;;;2.20;;
44446;SDS011;30152;52.066;5.358;2022-10-23T12:34:08;5.97;;;1.70;;
44446;SDS011;30152;52.066;5.358;2022-10-23T12:39:33;9.07;;;1.90;;
44446;SDS011;30152;52.066;5.358;2022-10-23T12:42:01;13.38;;;2.30;;
44446;SDS011;30152;52.066;5.358;2022-10-23T12:44:27;14.90;;;2.85;;
44446;SDS011;30152;52.066;5.358;2022-10-23T12:46:57;7.13;;;2.22;;
44446;SDS011;30152;52.066;5.358;2022-10-23T12:49:27;8.73;;;2.53;;
44446;SDS011;30152;52.066;5.358;2022-10-23T12:51:59;8.05;;;2.45;;
44446;SDS011;30152;52.066;5.358;2022-10-23T12:54:25;9.52;;;2.15;;
44446;SDS011;30152;52.066;5.358;2022-10-23T12:56:51;10.32;;;2.92;;
44446;SDS011;30152;52.066;5.358;2022-10-23T12:59:19;7.65;;;2.13;;
44446;SDS011;30152;52.066;5.358;2022-10-23T13:01:53;9.38;;;2.70;;
44446;SDS011;30152;52.066;5.358;2022-10-23T13:04:24;8.60;;;2.42;;
44446;SDS011;30152;52.066;5.358;2022-10-23T13:06:56;7.20;;;2.08;;
44446;SDS011;30152;52.066;5.358;2022-10-23T13:09:32;10.07;;;2.47;;
44446;SDS011;30152;52.066;5.358;2022-10-23T13:11:58;8.95;;;2.70;;
44446;SDS011;30152;52.066;5.358;2022-10-23T13:17:00;11.45;;;3.00;;
44446;SDS011;30152;52.066;5.358;2022-10-23T13:19:27;8.75;;;2.80;;
44446;SDS011;30152;52.066;5.358;2022-10-23T13:21:52;10.00;;;3.28;;
44446;SDS011;30152;52.066;5.358;2022-10-23T13:24:19;9.35;;;2.60;;
44446;SDS011;30152;52.066;5.358;2022-10-23T13:26:46;8.00;;;2.58;;
44446;SDS011;30152;52.066;5.358;2022-10-23T13:29:17;7.93;;;2.08;;
44446;SDS011;30152;52.066;5.358;2022-10-23T13:31:49;8.40;;;3.47;;
44446;SDS011;30152;52.066;5.358;2022-10-23T13:34:21;13.27;;;2.67;;
44446;SDS011;30152;52.066;5.358;2022-10-23T13:36:50;9.00;;;2.70;;
44446;SDS011;30152;52.066;5.358;2022-10-23T13:39:21;12.38;;;2.90;;
44446;SDS011;30152;52.066;5.358;2022-10-23T13:41:51;11.48;;;2.90;;
44446;SDS011;30152;52.066;5.358;2022-10-23T13:44:18;9.57;;;2.92;;
44446;SDS011;30152;52.066;5.358;2022-10-23T13:46:45;11.15;;;3.60;;
44446;SDS011;30152;52.066;5.358;2022-10-23T13:49:12;8.82;;;2.92;;
44446;SDS011;30152;52.066;5.358;2022-10-23T13:51:48;10.85;;;2.65;;
44446;SDS011;30152;52.066;5.358;2022-10-23T13:54:21;10.20;;;2.53;;
44446;SDS011;30152;52.066;5.358;2022-10-23T13:56:49;10.25;;;2.78;;
44446;SDS011;30152;52.066;5.358;2022-10-23T13:59:15;10.00;;;2.83;;
44446;SDS011;30152;52.066;5.358;2022-10-23T14:01:42;5.97;;;2.55;;
44446;SDS011;30152;52.066;5.358;2022-10-23T14:04:08;13.02;;;2.83;;
44446;SDS011;30152;52.066;5.358;2022-10-23T14:06:35;8.50;;;2.97;;
44446;SDS011;30152;52.066;5.358;2022-10-23T14:09:01;8.07;;;2.95;;
44446;SDS011;30152;52.066;5.358;2022-10-23T14:11:27;10.93;;;2.65;;
44446;SDS011;30152;52.066;5.358;2022-10-23T14:13:53;7.82;;;2.65;;
44446;SDS011;30152;52.066;5.358;2022-10-23T14:16:19;6.65;;;2.50;;
44446;SDS011;30152;52.066;5.358;2022-10-23T14:18:45;11.18;;;2.78;;
44446;SDS011;30152;52.066;5.358;2022-10-23T14:21:12;8.20;;;2.65;;
44446;SDS011;30152;52.066;5.358;2022-10-23T14:23:39;7.43;;;2.67;;
44446;SDS011;30152;52.066;5.358;2022-10-23T14:26:06;8.35;;;2.75;;
44446;SDS011;30152;52.066;5.358;2022-10-23T14:28:33;9.38;;;2.88;;
44446;SDS011;30152;52.066;5.358;2022-10-23T14:31:03;9.52;;;2.90;;
44446;SDS011;30152;52.066;5.358;2022-10-23T14:33:29;8.68;;;2.60;;
44446;SDS011;30152;52.066;5.358;2022-10-23T14:35:55;10.43;;;3.50;;
44446;SDS011;30152;52.066;5.358;2022-10-23T14:38:21;10.98;;;3.33;;
44446;SDS011;30152;52.066;5.358;2022-10-23T14:40:47;12.00;;;3.58;;
44446;SDS011;30152;52.066;5.358;2022-10-23T14:43:13;10.68;;;3.20;;
44446;SDS011;30152;52.066;5.358;2022-10-23T14:45:38;9.60;;;3.05;;
44446;SDS011;30152;52.066;5.358;2022-10-23T14:48:04;15.45;;;3.83;;
44446;SDS011;30152;52.066;5.358;2022-10-23T14:50:30;11.07;;;3.03;;
44446;SDS011;30152;52.066;5.358;2022-10-23T14:52:58;9.25;;;2.88;;
44446;SDS011;30152;52.066;5.358;2022-10-23T14:55:23;7.85;;;2.67;;
44446;SDS011;30152;52.066;5.358;2022-10-23T14:57:53;10.30;;;3.00;;
44446;SDS011;30152;52.066;5.358;2022-10-23T15:00:19;9.23;;;2.80;;
44446;SDS011;30152;52.066;5.358;2022-10-23T15:02:45;12.50;;;3.92;;
44446;SDS011;30152;52.066;5.358;2022-10-23T15:05:10;14.13;;;3.55;;
44446;SDS011;30152;52.066;5.358;2022-10-23T15:07:36;7.78;;;3.25;;
44446;SDS011;30152;52.066;5.358;2022-10-23T15:10:02;12.98;;;3.20;;
44446;SDS011;30152;52.066;5.358;2022-10-23T15:12:28;7.60;;;3.00;;
44446;SDS011;30152;52.066;5.358;2022-10-23T15:14:54;12.35;;;2.92;;
44446;SDS011;30152;52.066;5.358;2022-10-23T15:17:19;9.68;;;3.50;;
44446;SDS011;30152;52.066;5.358;2022-10-23T15:19:45;8.98;;;3.33;;
44446;SDS011;30152;52.066;5.358;2022-10-23T15:22:10;8.07;;;3.05;;
44446;SDS011;30152;52.066;5.358;2022-10-23T15:24:36;12.52;;;3.70;;
44446;SDS011;30152;52.066;5.358;2022-10-23T15:27:01;10.68;;;3.45;;
44446;SDS011;30152;52.066;5.358;2022-10-23T15:29:27;6.75;;;2.85;;
44446;SDS011;30152;52.066;5.358;2022-10-23T15:31:53;13.80;;;5.28;;
44446;SDS011;30152;52.066;5.358;2022-10-23T15:34:22;10.95;;;3.47;;
44446;SDS011;30152;52.066;5.358;2022-10-23T15:36:50;10.55;;;4.28;;
44446;SDS011;30152;52.066;5.358;2022-10-23T15:39:19;6.75;;;3.10;;
44446;SDS011;30152;52.066;5.358;2022-10-23T15:41:47;13.32;;;3.03;;
44446;SDS011;30152;52.066;5.358;2022-10-23T15:44:16;11.18;;;3.80;;
44446;SDS011;30152;52.066;5.358;2022-10-23T15:46:43;12.60;;;3.15;;
44446;SDS011;30152;52.066;5.358;2022-10-23T15:49:09;11.23;;;3.17;;
44446;SDS011;30152;52.066;5.358;2022-10-23T15:51:35;10.10;;;3.10;;
44446;SDS011;30152;52.066;5.358;2022-10-23T15:54:05;11.05;;;3.35;;
44446;SDS011;30152;52.066;5.358;2022-10-23T15:56:34;12.90;;;2.85;;
44446;SDS011;30152;52.066;5.358;2022-10-23T15:58:59;11.07;;;3.00;;
44446;SDS011;30152;52.066;5.358;2022-10-23T16:01:26;10.15;;;3.55;;
44446;SDS011;30152;52.066;5.358;2022-10-23T16:03:52;9.45;;;3.33;;
44446;SDS011;30152;52.066;5.358;2022-10-23T16:06:18;12.70;;;2.85;;
44446;SDS011;30152;52.066;5.358;2022-10-23T16:08:44;12.85;;;3.88;;
44446;SDS011;30152;52.066;5.358;2022-10-23T16:11:27;10.65;;;2.92;;
44446;SDS011;30152;52.066;5.358;2022-10-23T16:13:55;10.02;;;2.92;;
44446;SDS011;30152;52.066;5.358;2022-10-23T16:16:22;18.42;;;3.65;;
44446;SDS011;30152;52.066;5.358;2022-10-23T16:18:48;7.70;;;3.13;;
44446;SDS011;30152;52.066;5.358;2022-10-23T16:21:18;8.82;;;3.13;;
44446;SDS011;30152;52.066;5.358;2022-10-23T16:23:45;13.65;;;3.65;;
44446;SDS011;30152;52.066;5.358;2022-10-23T16:26:11;18.52;;;4.40;;
44446;SDS011;30152;52.066;5.358;2022-10-23T16:28:37;13.20;;;3.72;;
44446;SDS011;30152;52.066;5.358;2022-10-23T16:31:14;7.50;;;2.83;;
44446;SDS011;30152;52.066;5.358;2022-10-23T16:33:41;11.55;;;4.15;;
44446;SDS011;30152;52.066;5.358;2022-10-23T16:36:08;8.38;;;3.08;;
44446;SDS011;30152;52.066;5.358;2022-10-23T16:38:34;8.77;;;3.53;;
44446;SDS011;30152;52.066;5.358;2022-10-23T16:41:00;11.95;;;4.25;;
44446;SDS011;30152;52.066;5.358;2022-10-23T16:43:26;13.02;;;3.38;;
44446;SDS011;30152;52.066;5.358;2022-10-23T16:45:59;13.48;;;3.75;;
44446;SDS011;30152;52.066;5.358;2022-10-23T16:48:45;14.75;;;2.92;;
44446;SDS011;30152;52.066;5.358;2022-10-23T16:51:12;10.43;;;3.80;;
44446;SDS011;30152;52.066;5.358;2022-10-23T16:53:41;11.32;;;3.30;;
44446;SDS011;30152;52.066;5.358;2022-10-23T16:56:08;11.05;;;3.55;;
44446;SDS011;30152;52.066;5.358;2022-10-23T16:58:35;18.52;;;3.83;;
44446;SDS011;30152;52.066;5.358;2022-10-23T17:01:02;14.23;;;3.13;;
44446;SDS011;30152;52.066;5.358;2022-10-23T17:03:34;12.00;;;3.50;;
44446;SDS011;30152;52.066;5.358;2022-10-23T17:06:01;14.10;;;3.53;;
44446;SDS011;30152;52.066;5.358;2022-10-23T17:08:28;11.65;;;3.78;;
44446;SDS011;30152;52.066;5.358;2022-10-23T17:13:32;9.70;;;3.50;;
44446;SDS011;30152;52.066;5.358;2022-10-23T17:16:10;8.95;;;3.28;;
44446;SDS011;30152;52.066;5.358;2022-10-23T17:18:38;11.50;;;3.83;;
44446;SDS011;30152;52.066;5.358;2022-10-23T17:21:04;9.15;;;3.70;;
44446;SDS011;30152;52.066;5.358;2022-10-23T17:23:30;10.68;;;3.75;;
44446;SDS011;30152;52.066;5.358;2022-10-23T17:25:56;8.82;;;3.47;;
44446;SDS011;30152;52.066;5.358;2022-10-23T17:28:23;13.38;;;3.67;;
44446;SDS011;30152;52.066;5.358;2022-10-23T17:30:49;12.95;;;3.85;;
44446;SDS011;30152;52.066;5.358;2022-10-23T17:33:16;11.70;;;4.30;;
44446;SDS011;30152;52.066;5.358;2022-10-23T17:35:41;14.13;;;4.43;;
44446;SDS011;30152;52.066;5.358;2022-10-23T17:38:09;9.45;;;3.03;;
44446;SDS011;30152;52.066;5.358;2022-10-23T17:40:35;12.18;;;3.72;;
44446;SDS011;30152;52.066;5.358;2022-10-23T17:43:01;11.70;;;3.60;;
44446;SDS011;30152;52.066;5.358;2022-10-23T17:45:28;9.57;;;3.30;;
44446;SDS011;30152;52.066;5.358;2022-10-23T17:47:54;11.98;;;3.70;;
44446;SDS011;30152;52.066;5.358;2022-10-23T17:50:20;14.02;;;3.70;;
44446;SDS011;30152;52.066;5.358;2022-10-23T17:52:46;10.50;;;3.88;;
44446;SDS011;30152;52.066;5.358;2022-10-23T17:55:12;9.70;;;3.60;;
44446;SDS011;30152;52.066;5.358;2022-10-23T17:57:38;9.82;;;3.50;;
44446;SDS011;30152;52.066;5.358;2022-10-23T18:00:04;7.80;;;3.55;;
44446;SDS011;30152;52.066;5.358;2022-10-23T18:02:30;11.27;;;3.30;;
44446;SDS011;30152;52.066;5.358;2022-10-23T18:04:56;15.73;;;5.05;;
44446;SDS011;30152;52.066;5.358;2022-10-23T18:07:22;10.48;;;4.25;;
44446;SDS011;30152;52.066;5.358;2022-10-23T18:09:50;9.23;;;3.45;;
44446;SDS011;30152;52.066;5.358;2022-10-23T18:12:16;12.15;;;3.33;;
44446;SDS011;30152;52.066;5.358;2022-10-23T18:14:42;11.65;;;3.35;;
44446;SDS011;30152;52.066;5.358;2022-10-23T18:17:08;7.68;;;3.33;;
44446;SDS011;30152;52.066;5.358;2022-10-23T18:19:34;11.30;;;3.25;;
44446;SDS011;30152;52.066;5.358;2022-10-23T18:22:00;11.40;;;3.83;;
44446;SDS011;30152;52.066;5.358;2022-10-23T18:24:26;9.40;;;3.80;;
44446;SDS011;30152;52.066;5.358;2022-10-23T18:26:52;17.77;;;4.20;;
44446;SDS011;30152;52.066;5.358;2022-10-23T18:29:18;7.38;;;3.10;;
44446;SDS011;30152;52.066;5.358;2022-10-23T18:31:45;9.45;;;3.88;;
44446;SDS011;30152;52.066;5.358;2022-10-23T18:34:16;10.98;;;3.75;;
44446;SDS011;30152;52.066;5.358;2022-10-23T18:36:47;11.88;;;4.22;;
44446;SDS011;30152;52.066;5.358;2022-10-23T18:39:14;12.55;;;4.13;;
44446;SDS011;30152;52.066;5.358;2022-10-23T18:41:42;13.13;;;4.32;;
44446;SDS011;30152;52.066;5.358;2022-10-23T18:44:08;10.02;;;3.53;;
44446;SDS011;30152;52.066;5.358;2022-10-23T18:46:37;12.98;;;4.00;;
44446;SDS011;30152;52.066;5.358;2022-10-23T18:49:03;9.38;;;3.70;;
44446;SDS011;30152;52.066;5.358;2022-10-23T18:51:30;11.68;;;3.85;;
44446;SDS011;30152;52.066;5.358;2022-10-23T18:53:58;11.32;;;3.70;;
44446;SDS011;30152;52.066;5.358;2022-10-23T18:56:26;11.20;;;3.67;;
44446;SDS011;30152;52.066;5.358;2022-10-23T18:58:53;8.95;;;3.60;;
44446;SDS011;30152;52.066;5.358;2022-10-23T19:01:23;8.77;;;3.83;;
44446;SDS011;30152;52.066;5.358;2022-10-23T19:03:51;12.43;;;3.97;;
44446;SDS011;30152;52.066;5.358;2022-10-23T19:06:18;15.88;;;3.97;;
44446;SDS011;30152;52.066;5.358;2022-10-23T19:08:44;13.20;;;3.85;;
44446;SDS011;30152;52.066;5.358;2022-10-23T19:11:11;12.27;;;4.05;;
44446;SDS011;30152;52.066;5.358;2022-10-23T19:13:38;11.48;;;4.10;;
44446;SDS011;30152;52.066;5.358;2022-10-23T19:16:05;10.45;;;4.13;;
44446;SDS011;30152;52.066;5.358;2022-10-23T19:18:34;14.60;;;4.75;;
44446;SDS011;30152;52.066;5.358;2022-10-23T19:21:02;14.40;;;4.97;;
44446;SDS011;30152;52.066;5.358;2022-10-23T19:23:30;14.43;;;5.22;;
44446;SDS011;30152;52.066;5.358;2022-10-23T19:25:56;10.10;;;3.80;;
44446;SDS011;30152;52.066;5.358;2022-10-23T19:28:22;10.45;;;3.63;;
44446;SDS011;30152;52.066;5.358;2022-10-23T19:30:48;9.93;;;3.30;;
44446;SDS011;30152;52.066;5.358;2022-10-23T19:33:14;11.43;;;4.05;;
44446;SDS011;30152;52.066;5.358;2022-10-23T19:35:40;12.77;;;4.03;;
44446;SDS011;30152;52.066;5.358;2022-10-23T19:38:06;11.80;;;4.35;;
44446;SDS011;30152;52.066;5.358;2022-10-23T19:40:32;9.02;;;4.20;;
44446;SDS011;30152;52.066;5.358;2022-10-23T19:42:58;10.70;;;3.97;;
44446;SDS011;30152;52.066;5.358;2022-10-23T19:45:24;12.18;;;3.63;;
44446;SDS011;30152;52.066;5.358;2022-10-23T19:47:50;9.10;;;3.65;;
44446;SDS011;30152;52.066;5.358;2022-10-23T19:50:16;9.95;;;4.07;;
44446;SDS011;30152;52.066;5.358;2022-10-23T19:52:42;8.13;;;3.92;;
44446;SDS011;30152;52.066;5.358;2022-10-23T19:55:08;13.27;;;3.88;;
44446;SDS011;30152;52.066;5.358;2022-10-23T19:57:34;14.80;;;4.18;;
44446;SDS011;30152;52.066;5.358;2022-10-23T20:00:03;11.15;;;3.95;;
44446;SDS011;30152;52.066;5.358;2022-10-23T20:02:31;11.88;;;3.60;;
44446;SDS011;30152;52.066;5.358;2022-10-23T20:04:59;10.55;;;3.88;;
44446;SDS011;30152;52.066;5.358;2022-10-23T20:07:25;6.90;;;3.42;;
44446;SDS011;30152;52.066;5.358;2022-10-23T20:09:51;18.35;;;3.38;;
44446;SDS011;30152;52.066;5.358;2022-10-23T20:12:17;8.13;;;3.10;;
44446;SDS011;30152;52.066;5.358;2022-10-23T20:14:43;9.60;;;3.00;;
44446;SDS011;30152;52.066;5.358;2022-10-23T20:17:09;8.60;;;2.53;;
44446;SDS011;30152;52.066;5.358;2022-10-23T20:19:35;7.68;;;2.60;;
44446;SDS011;30152;52.066;5.358;2022-10-23T20:22:00;6.88;;;2.17;;
44446;SDS011;30152;52.066;5.358;2022-10-23T20:24:26;7.93;;;1.85;;
44446;SDS011;30152;52.066;5.358;2022-10-23T20:26:53;7.22;;;1.92;;
